createdAt,value
2019-02-18T00:02:22.181Z,6.80
2019-02-18T00:04:49.908Z,6.73
2019-02-18T00:07:17.569Z,7.07
2019-02-18T00:09:45.185Z,6.50
2019-02-18T00:12:12.935Z,6.33
2019-02-18T00:14:40.733Z,6.73
2019-02-18T00:17:08.366Z,7.80
2019-02-18T00:19:35.981Z,7.80
2019-02-18T00:22:03.953Z,7.63
2019-02-18T00:24:31.624Z,7.97
2019-02-18T00:26:59.316Z,7.67
2019-02-18T00:29:26.970Z,6.23
2019-02-18T00:31:54.605Z,6.37
2019-02-18T00:34:22.260Z,7.03
2019-02-18T00:36:50.000Z,7.17
2019-02-18T00:39:17.616Z,7.70
2019-02-18T00:41:45.264Z,7.60
2019-02-18T00:44:12.932Z,8.23
2019-02-18T00:46:40.618Z,8.10
2019-02-18T00:49:08.267Z,8.63
2019-02-18T00:51:36.005Z,8.27
2019-02-18T00:54:03.973Z,8.43
2019-02-18T00:56:31.597Z,7.93
2019-02-18T00:58:59.213Z,6.60
2019-02-18T01:01:26.926Z,7.23
2019-02-18T01:03:54.563Z,7.33
2019-02-18T01:06:22.188Z,8.70
2019-02-18T01:08:49.852Z,8.23
2019-02-18T01:11:17.494Z,8.67
2019-02-18T01:13:45.310Z,8.37
2019-02-18T01:16:13.085Z,8.67
2019-02-18T01:18:40.707Z,9.27
2019-02-18T01:21:08.409Z,9.23
2019-02-18T01:23:36.058Z,8.37
2019-02-18T01:26:03.702Z,9.33
2019-02-18T01:28:31.324Z,9.90
2019-02-18T01:30:59.040Z,9.53
2019-02-18T01:33:26.705Z,8.90
2019-02-18T01:35:54.328Z,9.40
2019-02-18T01:38:22.017Z,9.40
2019-02-18T01:40:49.552Z,9.30
2019-02-18T01:43:17.175Z,9.97
2019-02-18T01:45:44.850Z,9.73
2019-02-18T01:48:12.524Z,9.43
2019-02-18T01:50:41.196Z,8.67
2019-02-18T01:53:09.005Z,9.60
2019-02-18T01:55:36.640Z,9.37
2019-02-18T01:58:04.252Z,8.80
2019-02-18T02:00:31.915Z,7.97
2019-02-18T02:02:59.727Z,8.60
2019-02-18T02:05:27.337Z,8.10
2019-02-18T02:07:56.668Z,8.70
2019-02-18T02:10:24.992Z,8.17
2019-02-18T02:13:40.228Z,8.07
2019-02-18T02:16:11.436Z,8.30
2019-02-18T02:18:39.084Z,8.33
2019-02-18T02:21:06.759Z,8.13
2019-02-18T02:23:34.384Z,8.10
2019-02-18T02:26:02.291Z,7.57
2019-02-18T02:28:29.940Z,8.00
2019-02-18T02:30:57.554Z,8.97
2019-02-18T02:33:25.266Z,8.23
2019-02-18T02:35:52.959Z,8.27
2019-02-18T02:38:20.839Z,8.33
2019-02-18T02:40:48.529Z,8.77
2019-02-18T02:43:16.149Z,8.07
2019-02-18T02:45:43.818Z,8.40
2019-02-18T02:48:11.483Z,7.73
2019-02-18T02:50:39.096Z,9.13
2019-02-18T02:53:06.803Z,8.07
2019-02-18T02:55:34.436Z,8.07
2019-02-18T02:58:02.214Z,7.93
2019-02-18T03:00:29.875Z,8.27
2019-02-18T03:02:57.497Z,7.87
2019-02-18T03:05:25.498Z,8.57
2019-02-18T03:07:53.098Z,8.03
2019-02-18T03:10:20.825Z,7.73
2019-02-18T03:12:48.528Z,7.27
2019-02-18T03:15:16.244Z,8.23
2019-02-18T03:17:43.873Z,7.73
2019-02-18T03:20:11.789Z,7.77
2019-02-18T03:22:39.445Z,7.60
2019-02-18T03:25:18.031Z,7.83
2019-02-18T03:27:49.331Z,7.53
2019-02-18T03:30:39.609Z,7.30
2019-02-18T03:33:08.954Z,8.23
2019-02-18T03:35:36.674Z,7.83
2019-02-18T03:38:04.324Z,7.20
2019-02-18T03:40:31.940Z,7.73
2019-02-18T03:42:59.556Z,8.00
2019-02-18T03:45:27.305Z,8.37
2019-02-18T03:47:54.922Z,7.57
2019-02-18T03:50:23.019Z,8.17
2019-02-18T03:52:50.680Z,7.17
2019-02-18T03:55:18.301Z,8.10
2019-02-18T03:57:46.052Z,8.23
2019-02-18T04:00:13.668Z,8.07
2019-02-18T04:02:41.309Z,7.80
2019-02-18T04:05:08.972Z,7.70
2019-02-18T04:07:36.695Z,7.83
2019-02-18T04:10:04.364Z,7.53
2019-02-18T04:12:32.020Z,7.03
2019-02-18T04:14:59.702Z,7.70
2019-02-18T04:17:27.787Z,7.77
2019-02-18T04:19:55.469Z,7.33
2019-02-18T04:22:23.145Z,7.50
2019-02-18T04:24:50.865Z,7.47
2019-02-18T04:27:18.508Z,8.27
2019-02-18T04:29:46.148Z,8.13
2019-02-18T04:32:13.797Z,7.67
2019-02-18T04:34:41.417Z,7.53
2019-02-18T04:37:09.046Z,7.63
2019-02-18T04:39:36.728Z,7.73
2019-02-18T04:42:05.462Z,7.03
2019-02-18T04:44:33.082Z,7.20
2019-02-18T04:47:00.742Z,6.90
2019-02-18T04:49:28.339Z,7.80
2019-02-18T04:51:56.052Z,7.67
2019-02-18T04:54:23.707Z,7.13
2019-02-18T04:56:51.341Z,7.10
2019-02-18T04:59:19.040Z,7.50
2019-02-18T05:01:46.677Z,6.70
2019-02-18T05:04:14.405Z,7.13
2019-02-18T05:06:42.056Z,6.87
2019-02-18T05:09:09.684Z,7.27
2019-02-18T05:11:37.336Z,7.07
2019-02-18T05:14:04.972Z,7.67
2019-02-18T05:16:32.644Z,7.53
2019-02-18T05:19:00.375Z,7.13
2019-02-18T05:21:28.018Z,7.00
2019-02-18T05:23:55.749Z,7.50
2019-02-18T05:26:23.364Z,7.10
2019-02-18T05:28:51.057Z,6.60
2019-02-18T05:31:18.681Z,7.53
2019-02-18T05:33:46.388Z,6.87
2019-02-18T05:36:14.032Z,7.03
2019-02-18T05:38:42.672Z,6.60
2019-02-18T05:41:10.324Z,6.70
2019-02-18T05:43:37.849Z,6.50
2019-02-18T05:46:08.369Z,6.00
2019-02-18T05:48:35.081Z,6.47
2019-02-18T05:51:02.774Z,6.10
2019-02-18T05:53:30.981Z,6.10
2019-02-18T05:55:58.601Z,6.03
2019-02-18T05:58:26.275Z,6.27
2019-02-18T06:00:53.908Z,6.00
2019-02-18T06:03:21.578Z,5.63
2019-02-18T06:05:49.221Z,6.07
2019-02-18T06:08:16.953Z,6.83
2019-02-18T06:10:44.643Z,5.83
2019-02-18T06:13:12.256Z,6.03
2019-02-18T06:15:39.891Z,6.70
2019-02-18T06:18:07.530Z,5.93
2019-02-18T06:20:35.173Z,6.37
2019-02-18T06:23:03.342Z,5.73
2019-02-18T06:25:31.026Z,6.30
2019-02-18T06:27:58.709Z,6.33
2019-02-18T06:30:26.337Z,6.40
2019-02-18T06:32:53.932Z,6.63
2019-02-18T06:35:21.819Z,6.63
2019-02-18T06:37:49.559Z,6.70
2019-02-18T06:40:17.181Z,5.80
2019-02-18T06:42:44.860Z,6.87
2019-02-18T06:45:34.872Z,5.97
2019-02-18T06:48:24.928Z,6.10
2019-02-18T06:50:52.505Z,6.17
2019-02-18T06:53:20.114Z,5.80
2019-02-18T06:55:48.010Z,5.40
2019-02-18T06:58:24.544Z,5.57
2019-02-18T07:00:59.734Z,6.20
2019-02-18T07:03:46.852Z,6.30
2019-02-18T07:06:24.137Z,6.67
2019-02-18T07:09:11.266Z,6.87
2019-02-18T07:11:47.484Z,6.80
2019-02-18T07:14:15.117Z,6.03
2019-02-18T07:16:42.740Z,6.00
2019-02-18T07:19:10.411Z,5.53
2019-02-18T07:21:38.112Z,5.80
2019-02-18T07:24:05.780Z,6.70
2019-02-18T07:26:33.423Z,5.67
2019-02-18T07:29:01.876Z,5.87
2019-02-18T07:31:29.587Z,5.87
2019-02-18T07:33:57.237Z,5.83
2019-02-18T07:36:24.952Z,6.33
2019-02-18T07:38:52.669Z,5.87
2019-02-18T07:41:20.313Z,6.23
2019-02-18T07:43:48.013Z,6.13
2019-02-18T07:46:15.654Z,5.83
2019-02-18T07:48:43.273Z,6.07
2019-02-18T07:51:10.942Z,6.43
2019-02-18T07:53:38.591Z,6.63
2019-02-18T07:56:06.318Z,5.97
2019-02-18T07:58:33.934Z,6.90
2019-02-18T08:01:01.703Z,5.53
2019-02-18T08:03:29.468Z,6.40
2019-02-18T08:05:57.097Z,6.77
2019-02-18T08:08:24.720Z,7.00
2019-02-18T08:10:52.348Z,6.60
2019-02-18T08:13:21.350Z,6.30
2019-02-18T08:15:48.975Z,7.00
2019-02-18T08:18:16.620Z,6.73
2019-02-18T08:20:44.299Z,5.63
2019-02-18T08:23:12.003Z,5.87
2019-02-18T08:25:39.712Z,6.13
2019-02-18T08:28:07.389Z,5.90
2019-02-18T08:30:35.028Z,5.90
2019-02-18T08:33:02.693Z,5.60
2019-02-18T08:35:30.472Z,5.50
2019-02-18T08:37:59.204Z,5.73
2019-02-18T08:40:26.900Z,5.57
2019-02-18T08:42:54.512Z,4.70
2019-02-18T08:45:22.176Z,4.73
2019-02-18T08:47:49.947Z,4.80
2019-02-18T08:50:17.600Z,4.60
2019-02-18T08:52:45.220Z,4.57
2019-02-18T08:55:13.019Z,3.87
2019-02-18T08:57:40.660Z,3.87
2019-02-18T09:00:11.440Z,4.00
2019-02-18T09:02:39.232Z,3.43
2019-02-18T09:05:07.128Z,3.77
2019-02-18T09:07:36.015Z,3.47
2019-02-18T09:10:04.109Z,3.90
2019-02-18T09:12:31.753Z,4.27
2019-02-18T09:14:59.388Z,5.43
2019-02-18T09:17:27.253Z,5.73
2019-02-18T09:19:54.880Z,5.70
2019-02-18T09:22:45.124Z,6.10
2019-02-18T09:25:18.602Z,6.07
2019-02-18T09:27:46.472Z,6.43
2019-02-18T09:30:16.572Z,5.93
2019-02-18T09:32:44.337Z,5.33
2019-02-18T09:35:11.993Z,5.80
2019-02-18T09:37:39.644Z,5.70
2019-02-18T09:40:07.381Z,5.00
2019-02-18T09:42:35.088Z,4.80
2019-02-18T09:45:02.765Z,4.93
2019-02-18T09:47:30.540Z,5.17
2019-02-18T09:49:58.201Z,4.10
2019-02-18T09:52:25.880Z,4.23
2019-02-18T09:54:53.592Z,4.90
2019-02-18T09:57:21.232Z,4.33
2019-02-18T09:59:48.925Z,5.00
2019-02-18T10:02:16.550Z,5.13
2019-02-18T10:04:44.914Z,4.63
2019-02-18T10:07:12.546Z,4.43
2019-02-18T10:09:40.199Z,4.23
2019-02-18T10:12:17.763Z,4.30
2019-02-18T10:14:37.569Z,4.73
2019-02-18T10:17:05.320Z,4.83
2019-02-18T10:19:33.008Z,4.27
2019-02-18T10:22:00.692Z,5.00
2019-02-18T10:24:28.255Z,4.80
2019-02-18T10:26:55.960Z,4.90
2019-02-18T10:29:23.746Z,4.07
2019-02-18T10:31:51.643Z,4.20
2019-02-18T10:34:19.296Z,4.10
2019-02-18T10:36:46.979Z,4.80
2019-02-18T10:39:14.652Z,4.20
2019-02-18T10:41:42.496Z,4.70
2019-02-18T10:44:10.132Z,4.33
2019-02-18T10:46:40.618Z,4.90
2019-02-18T10:49:18.904Z,4.30
2019-02-18T10:51:37.926Z,4.17
2019-02-18T10:54:06.003Z,4.07
2019-02-18T10:56:33.756Z,4.30
2019-02-18T10:59:01.427Z,4.17
2019-02-18T11:01:29.380Z,4.10
2019-02-18T11:03:57.041Z,4.40
2019-02-18T11:06:24.677Z,4.10
2019-02-18T11:08:52.373Z,4.40
2019-02-18T11:11:20.022Z,4.30
2019-02-18T11:13:47.645Z,4.00
2019-02-18T11:16:15.301Z,4.07
2019-02-18T11:18:42.927Z,3.90
2019-02-18T11:21:10.892Z,4.20
2019-02-18T11:23:38.552Z,4.17
2019-02-18T11:26:06.191Z,3.50
2019-02-18T11:28:33.985Z,3.80
2019-02-18T11:31:01.631Z,3.70
2019-02-18T11:33:29.581Z,3.43
2019-02-18T11:35:57.594Z,3.50
2019-02-18T11:38:25.237Z,8.43
2019-02-18T11:40:52.836Z,8.13
2019-02-18T11:43:20.461Z,3.40
2019-02-18T11:45:49.157Z,3.47
2019-02-18T11:48:16.777Z,3.90
2019-02-18T11:50:44.437Z,2.80
2019-02-18T11:53:12.213Z,3.10
2019-02-18T11:55:39.913Z,3.60
2019-02-18T11:58:07.682Z,3.20
2019-02-18T12:00:36.456Z,3.40
2019-02-18T12:03:11.600Z,3.30
2019-02-18T12:05:33.765Z,3.13
2019-02-18T12:08:01.829Z,3.13
2019-02-18T12:10:29.417Z,3.47
2019-02-18T12:12:56.961Z,4.00
2019-02-18T12:15:24.704Z,3.80
2019-02-18T12:17:52.504Z,3.37
2019-02-18T12:20:20.122Z,3.80
2019-02-18T12:22:47.871Z,4.03
2019-02-18T12:25:15.526Z,11.90
2019-02-18T12:27:43.424Z,4.40
2019-02-18T12:30:11.711Z,4.07
2019-02-18T12:32:39.396Z,3.77
2019-02-18T12:35:07.154Z,3.40
2019-02-18T12:37:34.931Z,3.70
2019-02-18T12:40:02.839Z,3.37
2019-02-18T12:42:31.643Z,3.40
2019-02-18T12:44:59.304Z,3.60
2019-02-18T12:47:26.981Z,3.70
2019-02-18T12:49:54.668Z,3.33
2019-02-18T12:52:22.455Z,4.27
2019-02-18T12:54:50.879Z,3.13
2019-02-18T12:57:18.713Z,3.40
2019-02-18T12:59:46.477Z,3.20
2019-02-18T13:02:14.679Z,2.90
2019-02-18T13:04:42.434Z,3.53
2019-02-18T13:07:10.177Z,3.10
2019-02-18T13:09:37.960Z,3.13
2019-02-18T13:12:05.680Z,3.20
2019-02-18T13:14:33.493Z,3.23
2019-02-18T13:17:01.297Z,3.00
2019-02-18T13:19:29.128Z,3.20
2019-02-18T13:21:57.133Z,3.40
2019-02-18T13:24:24.836Z,3.40
2019-02-18T13:26:52.477Z,3.13
2019-02-18T13:29:20.207Z,5.73
2019-02-18T13:31:47.924Z,5.60
2019-02-18T13:34:15.583Z,3.60
2019-02-18T13:36:43.243Z,4.23
2019-02-18T13:39:11.009Z,4.03
2019-02-18T13:41:38.848Z,3.90
2019-02-18T13:44:06.635Z,3.83
2019-02-18T13:46:34.325Z,3.83
2019-02-18T13:49:02.404Z,3.60
2019-02-18T13:51:30.216Z,3.40
2019-02-18T13:53:58.192Z,4.43
2019-02-18T13:56:25.869Z,4.70
2019-02-18T13:58:53.510Z,7.80
2019-02-18T14:01:21.245Z,5.50
2019-02-18T14:03:48.885Z,3.60
2019-02-18T14:06:16.539Z,5.13
2019-02-18T14:08:44.191Z,10.67
2019-02-18T14:11:11.869Z,14.60
2019-02-18T14:13:39.540Z,6.07
2019-02-18T14:16:07.320Z,4.97
2019-02-18T14:18:34.944Z,3.73
2019-02-18T14:21:02.990Z,3.97
2019-02-18T14:23:30.791Z,4.27
2019-02-18T14:25:58.627Z,4.10
2019-02-18T14:28:29.827Z,3.90
2019-02-18T14:30:57.972Z,4.10
2019-02-18T14:33:25.812Z,4.07
2019-02-18T14:35:53.440Z,3.70
2019-02-18T14:38:21.527Z,4.27
2019-02-18T14:40:49.173Z,4.33
2019-02-18T14:43:16.936Z,4.80
2019-02-18T14:45:44.681Z,5.27
2019-02-18T14:48:12.715Z,5.90
2019-02-18T14:50:40.440Z,7.97
2019-02-18T14:53:08.635Z,8.20
2019-02-18T14:55:36.273Z,4.33
2019-02-18T14:58:04.172Z,3.37
2019-02-18T15:00:31.923Z,3.27
2019-02-18T15:02:59.795Z,3.43
2019-02-18T15:05:27.840Z,3.23
2019-02-18T15:07:55.761Z,3.30
2019-02-18T15:10:23.512Z,4.07
2019-02-18T15:12:51.353Z,5.47
2019-02-18T15:15:19.384Z,3.63
2019-02-18T15:17:47.219Z,4.17
2019-02-18T15:20:14.914Z,4.13
2019-02-18T15:22:43.825Z,3.67
2019-02-18T15:25:11.636Z,4.07
2019-02-18T15:27:40.352Z,3.60
2019-02-18T15:30:08.948Z,3.97
2019-02-18T15:32:36.728Z,3.33
2019-02-18T15:35:04.594Z,3.70
2019-02-18T15:37:32.568Z,3.70
2019-02-18T15:40:00.302Z,3.90
2019-02-18T15:42:28.081Z,4.37
2019-02-18T15:44:55.810Z,4.13
2019-02-18T15:47:23.547Z,4.23
2019-02-18T15:49:51.376Z,3.93
2019-02-18T15:52:19.148Z,4.00
2019-02-18T15:54:47.340Z,7.00
2019-02-18T15:57:15.036Z,7.90
2019-02-18T15:59:42.659Z,6.73
2019-02-18T16:02:10.386Z,6.73
2019-02-18T16:04:38.087Z,6.17
2019-02-18T16:07:05.808Z,5.37
2019-02-18T16:09:33.462Z,5.73
2019-02-18T16:12:01.872Z,6.07
2019-02-18T16:14:29.553Z,6.40
2019-02-18T16:16:57.221Z,4.83
2019-02-18T16:19:24.890Z,4.20
2019-02-18T16:21:52.661Z,4.73
2019-02-18T16:24:20.418Z,4.43
2019-02-18T16:26:48.217Z,4.23
2019-02-18T16:29:16.163Z,4.60
2019-02-18T16:31:43.836Z,4.50
2019-02-18T16:34:11.860Z,4.23
2019-02-18T16:36:39.617Z,4.17
2019-02-18T16:39:07.858Z,4.03
2019-02-18T16:41:36.333Z,4.17
2019-02-18T16:44:04.030Z,3.87
2019-02-18T16:46:33.155Z,3.47
2019-02-18T16:49:01.678Z,3.47
2019-02-18T16:51:29.501Z,4.77
2019-02-18T16:53:57.316Z,3.93
2019-02-18T16:56:25.025Z,3.50
2019-02-18T16:58:52.702Z,3.47
2019-02-18T17:01:20.568Z,3.30
2019-02-18T17:03:48.322Z,3.90
2019-02-18T17:06:16.509Z,3.80
2019-02-18T17:08:44.169Z,3.57
2019-02-18T17:11:11.917Z,3.37
2019-02-18T17:13:39.700Z,3.40
2019-02-18T17:16:07.521Z,3.77
2019-02-18T17:18:35.526Z,3.20
2019-02-18T17:21:03.234Z,3.63
2019-02-18T17:23:31.261Z,3.50
2019-02-18T17:25:59.001Z,3.40
2019-02-18T17:28:26.707Z,4.03
2019-02-18T17:30:54.381Z,3.97
2019-02-18T17:33:22.328Z,3.33
2019-02-18T17:35:50.301Z,3.23
2019-02-18T17:38:20.980Z,3.70
2019-02-18T17:40:48.622Z,3.47
2019-02-18T17:43:16.712Z,3.23
2019-02-18T17:45:44.496Z,3.60
2019-02-18T17:48:12.130Z,3.23
2019-02-18T17:50:39.849Z,3.47
2019-02-18T17:53:08.514Z,3.67
2019-02-18T17:55:36.396Z,3.47
2019-02-18T17:58:05.089Z,3.60
2019-02-18T18:00:33.578Z,3.30
2019-02-18T18:03:01.269Z,3.33
2019-02-18T18:05:28.982Z,3.60
2019-02-18T18:07:57.198Z,3.43
2019-02-18T18:10:24.975Z,3.30
2019-02-18T18:12:53.103Z,3.63
2019-02-18T18:15:20.780Z,4.13
2019-02-18T18:17:48.529Z,4.77
2019-02-18T18:20:16.331Z,3.40
2019-02-18T18:22:44.279Z,3.47
2019-02-18T18:25:12.437Z,3.70
2019-02-18T18:27:40.229Z,3.60
2019-02-18T18:30:09.524Z,3.70
2019-02-18T18:32:37.167Z,3.40
2019-02-18T18:35:05.370Z,3.80
2019-02-18T18:37:34.317Z,4.10
2019-02-18T18:40:02.253Z,3.70
2019-02-18T18:42:31.381Z,3.77
2019-02-18T18:44:59.194Z,4.93
2019-02-18T18:47:26.881Z,4.77
2019-02-18T18:49:54.538Z,4.77
2019-02-18T18:52:22.225Z,4.33
2019-02-18T18:54:50.039Z,3.60
2019-02-18T18:57:18.168Z,4.20
2019-02-18T18:59:45.853Z,4.17
2019-02-18T19:02:13.587Z,4.17
2019-02-18T19:04:41.252Z,3.60
2019-02-18T19:07:08.960Z,4.33
2019-02-18T19:09:36.692Z,4.10
2019-02-18T19:12:04.366Z,4.40
2019-02-18T19:14:32.342Z,4.33
2019-02-18T19:17:01.592Z,3.90
2019-02-18T19:19:29.378Z,4.10
2019-02-18T19:21:57.155Z,3.87
2019-02-18T19:24:24.797Z,4.27
2019-02-18T19:26:52.478Z,4.00
2019-02-18T19:29:20.536Z,4.50
2019-02-18T19:31:48.224Z,5.17
2019-02-18T19:34:17.583Z,5.37
2019-02-18T19:36:45.393Z,4.57
2019-02-18T19:39:13.093Z,5.63
2019-02-18T19:41:40.806Z,4.50
2019-02-18T19:44:08.523Z,4.10
2019-02-18T19:46:36.283Z,3.63
2019-02-18T19:49:03.933Z,3.60
2019-02-18T19:51:31.619Z,4.23
2019-02-18T19:53:59.548Z,3.83
2019-02-18T19:56:27.310Z,4.10
2019-02-18T19:58:56.369Z,3.80
2019-02-18T20:01:26.549Z,3.70
2019-02-18T20:03:54.248Z,3.27
2019-02-18T20:06:22.185Z,3.50
2019-02-18T20:08:49.915Z,3.90
2019-02-18T20:11:19.214Z,3.77
2019-02-18T20:13:46.967Z,4.17
2019-02-18T20:16:15.107Z,4.80
2019-02-18T20:18:43.890Z,4.90
2019-02-18T20:21:11.597Z,5.50
2019-02-18T20:23:39.274Z,5.33
2019-02-18T20:26:06.980Z,5.67
2019-02-18T20:28:34.846Z,5.70
2019-02-18T20:31:02.657Z,6.43
2019-02-18T20:33:31.025Z,6.30
2019-02-18T20:36:00.604Z,6.83
2019-02-18T20:38:30.325Z,6.63
2019-02-18T20:40:59.285Z,6.60
2019-02-18T20:43:26.958Z,7.43
2019-02-18T20:45:54.785Z,7.30
2019-02-18T20:48:22.915Z,7.87
2019-02-18T20:50:50.602Z,7.90
2019-02-18T20:53:19.205Z,8.10
2019-02-18T20:55:48.208Z,7.80
2019-02-18T20:58:15.917Z,7.37
2019-02-18T21:00:43.781Z,7.63
2019-02-18T21:03:11.657Z,7.93
2019-02-18T21:05:39.367Z,7.23
2019-02-18T21:08:07.133Z,7.07
2019-02-18T21:10:34.913Z,6.90
2019-02-18T21:13:02.661Z,7.40
2019-02-18T21:15:30.340Z,7.30
2019-02-18T21:17:59.238Z,7.00
2019-02-18T21:20:27.341Z,7.27
2019-02-18T21:22:55.036Z,7.43
2019-02-18T21:25:22.735Z,7.27
2019-02-18T21:27:50.397Z,6.77
2019-02-18T21:30:18.182Z,7.37
2019-02-18T21:32:45.964Z,7.40
2019-02-18T21:35:14.677Z,6.77
2019-02-18T21:37:42.756Z,7.50
2019-02-18T21:40:10.485Z,7.43
2019-02-18T21:42:38.225Z,7.00
2019-02-18T21:45:06.507Z,7.97
2019-02-18T21:47:34.161Z,9.77
2019-02-18T21:50:01.853Z,8.47
2019-02-18T21:52:29.631Z,8.33
2019-02-18T21:54:57.656Z,8.00
2019-02-18T21:57:25.393Z,8.13
2019-02-18T21:59:53.057Z,8.43
2019-02-18T22:02:20.726Z,7.67
2019-02-18T22:04:48.461Z,8.00
2019-02-18T22:07:16.151Z,8.47
2019-02-18T22:09:44.014Z,8.40
2019-02-18T22:12:12.004Z,8.47
2019-02-18T22:14:39.705Z,8.70
2019-02-18T22:17:07.392Z,8.17
2019-02-18T22:19:35.031Z,9.17
2019-02-18T22:22:02.833Z,9.83
2019-02-18T22:24:30.643Z,9.07
2019-02-18T22:26:58.354Z,9.50
2019-02-18T22:29:26.528Z,9.20
2019-02-18T22:31:54.238Z,8.70
2019-02-18T22:34:21.926Z,8.30
2019-02-18T22:36:49.652Z,8.20
2019-02-18T22:39:17.310Z,9.00
2019-02-18T22:41:44.972Z,9.50
2019-02-18T22:44:12.700Z,9.30
2019-02-18T22:46:40.396Z,9.13
2019-02-18T22:49:08.389Z,9.37
2019-02-18T22:51:36.136Z,8.83
2019-02-18T22:54:03.812Z,9.73
2019-02-18T22:56:31.493Z,9.73
2019-02-18T22:58:59.166Z,9.97
2019-02-18T23:01:27.078Z,9.50
2019-02-18T23:03:54.919Z,8.67
2019-02-18T23:06:22.923Z,9.30
2019-02-18T23:08:50.533Z,9.30
2019-02-18T23:11:18.211Z,9.67
2019-02-18T23:13:45.864Z,9.73
2019-02-18T23:16:13.533Z,10.23
2019-02-18T23:18:41.178Z,10.07
2019-02-18T23:21:08.844Z,10.37
2019-02-18T23:23:36.559Z,10.97
2019-02-18T23:26:04.212Z,9.83
2019-02-18T23:28:31.880Z,10.23
2019-02-18T23:30:59.644Z,9.90
2019-02-18T23:33:27.356Z,10.30
2019-02-18T23:35:55.021Z,9.97
2019-02-18T23:38:22.779Z,9.83
2019-02-18T23:40:50.428Z,10.10
2019-02-18T23:43:18.468Z,10.03
2019-02-18T23:45:46.114Z,9.77
2019-02-18T23:48:13.756Z,9.43
2019-02-18T23:50:41.443Z,9.67
2019-02-18T23:53:09.085Z,8.80
2019-02-18T23:55:36.818Z,9.07
2019-02-18T23:58:04.523Z,9.23
